sensor_id;sensor_type;location;lat;lon;timestamp;noise_LAeq;noise_LA_min;noise_LA_max;noise_LA01;noise_LA95
67900;Laerm;54700;51.796;10.956;2023-06-14T00:02:00;30.51;27.79;40.41;;
67900;Laerm;54700;51.796;10.956;2023-06-14T00:04:38;29.27;27.03;39.34;;
67900;Laerm;54700;51.796;10.956;2023-06-14T00:07:11;30.81;27.19;51.77;;
67900;Laerm;54700;51.796;10.956;2023-06-14T00:09:45;32.29;28.19;41.29;;
67900;Laerm;54700;51.796;10.956;2023-06-14T00:12:20;52.07;27.18;67.68;;
67900;Laerm;54700;51.796;10.956;2023-06-14T00:14:48;45.92;27.71;62.97;;
67900;Laerm;54700;51.796;10.956;2023-06-14T00:17:15;33.28;28.40;46.61;;
67900;Laerm;54700;51.796;10.956;2023-06-14T00:19:45;34.77;28.40;48.52;;
67900;Laerm;54700;51.796;10.956;2023-06-14T00:22:15;30.34;27.54;39.11;;
67900;Laerm;54700;51.796;10.956;2023-06-14T00:24:45;30.87;27.38;43.00;;
67900;Laerm;54700;51.796;10.956;2023-06-14T00:27:14;30.83;27.36;48.45;;
67900;Laerm;54700;51.796;10.956;2023-06-14T00:29:41;29.19;27.03;38.65;;
67900;Laerm;54700;51.796;10.956;2023-06-14T00:32:08;49.69;27.57;66.92;;
67900;Laerm;54700;51.796;10.956;2023-06-14T00:34:35;30.85;27.58;44.50;;
67900;Laerm;54700;51.796;10.956;2023-06-14T00:37:04;33.34;27.20;42.44;;
67900;Laerm;54700;51.796;10.956;2023-06-14T00:39:31;46.67;32.93;60.80;;
67900;Laerm;54700;51.796;10.956;2023-06-14T00:41:57;47.22;27.90;64.95;;
67900;Laerm;54700;51.796;10.956;2023-06-14T00:44:24;46.42;28.21;61.36;;
67900;Laerm;54700;51.796;10.956;2023-06-14T00:46:51;50.09;27.53;66.16;;
67900;Laerm;54700;51.796;10.956;2023-06-14T00:49:21;31.35;27.61;41.62;;
67900;Laerm;54700;51.796;10.956;2023-06-14T00:51:48;32.52;27.91;41.56;;
67900;Laerm;54700;51.796;10.956;2023-06-14T00:54:23;33.92;27.61;47.49;;
67900;Laerm;54700;51.796;10.956;2023-06-14T00:56:56;32.12;26.98;48.82;;
67900;Laerm;54700;51.796;10.956;2023-06-14T00:59:23;35.28;27.23;45.26;;
67900;Laerm;54700;51.796;10.956;2023-06-14T01:01:57;32.08;27.50;45.49;;
67900;Laerm;54700;51.796;10.956;2023-06-14T01:04:30;32.88;28.41;44.19;;
67900;Laerm;54700;51.796;10.956;2023-06-14T01:07:01;32.10;27.40;50.24;;
67900;Laerm;54700;51.796;10.956;2023-06-14T01:09:44;35.22;28.42;54.67;;
67900;Laerm;54700;51.796;10.956;2023-06-14T01:12:24;53.58;27.27;69.94;;
67900;Laerm;54700;51.796;10.956;2023-06-14T01:15:02;30.22;27.06;40.82;;
67900;Laerm;54700;51.796;10.956;2023-06-14T01:17:34;30.49;27.35;44.63;;
67900;Laerm;54700;51.796;10.956;2023-06-14T01:20:09;29.05;26.92;40.20;;
67900;Laerm;54700;51.796;10.956;2023-06-14T01:22:50;31.13;27.58;41.48;;
67900;Laerm;54700;51.796;10.956;2023-06-14T01:25:17;30.02;27.42;39.97;;
67900;Laerm;54700;51.796;10.956;2023-06-14T01:27:47;30.93;28.15;38.46;;
67900;Laerm;54700;51.796;10.956;2023-06-14T01:30:15;32.05;27.42;49.50;;
67900;Laerm;54700;51.796;10.956;2023-06-14T01:32:49;39.31;27.35;64.17;;
67900;Laerm;54700;51.796;10.956;2023-06-14T01:35:17;38.05;27.30;59.13;;
67900;Laerm;54700;51.796;10.956;2023-06-14T01:37:47;50.03;28.74;66.71;;
67900;Laerm;54700;51.796;10.956;2023-06-14T01:40:15;50.64;28.01;65.42;;
67900;Laerm;54700;51.796;10.956;2023-06-14T01:42:42;44.66;29.46;60.03;;
67900;Laerm;54700;51.796;10.956;2023-06-14T01:45:12;48.72;28.59;65.34;;
67900;Laerm;54700;51.796;10.956;2023-06-14T01:47:40;41.46;28.53;60.93;;
67900;Laerm;54700;51.796;10.956;2023-06-14T01:50:08;51.73;29.52;67.32;;
67900;Laerm;54700;51.796;10.956;2023-06-14T01:52:37;55.88;30.78;71.45;;
67900;Laerm;54700;51.796;10.956;2023-06-14T01:55:14;52.39;31.17;68.19;;
67900;Laerm;54700;51.796;10.956;2023-06-14T01:57:43;46.70;31.41;61.82;;
67900;Laerm;54700;51.796;10.956;2023-06-14T02:00:14;51.57;31.43;65.00;;
67900;Laerm;54700;51.796;10.956;2023-06-14T02:02:44;46.66;31.96;61.57;;
67900;Laerm;54700;51.796;10.956;2023-06-14T02:05:17;44.50;31.91;57.60;;
67900;Laerm;54700;51.796;10.956;2023-06-14T02:07:45;52.66;31.45;67.97;;
67900;Laerm;54700;51.796;10.956;2023-06-14T02:10:14;52.09;32.97;67.12;;
67900;Laerm;54700;51.796;10.956;2023-06-14T02:12:41;55.55;33.48;73.90;;
67900;Laerm;54700;51.796;10.956;2023-06-14T02:15:09;46.88;33.78;60.08;;
67900;Laerm;54700;51.796;10.956;2023-06-14T02:17:42;54.13;32.44;70.45;;
67900;Laerm;54700;51.796;10.956;2023-06-14T02:20:10;54.74;35.67;69.54;;
67900;Laerm;54700;51.796;10.956;2023-06-14T02:22:37;52.48;32.93;68.94;;
67900;Laerm;54700;51.796;10.956;2023-06-14T02:25:04;52.35;32.23;68.54;;
67900;Laerm;54700;51.796;10.956;2023-06-14T02:27:33;43.86;32.36;57.77;;
67900;Laerm;54700;51.796;10.956;2023-06-14T02:30:01;53.39;33.60;67.86;;
67900;Laerm;54700;51.796;10.956;2023-06-14T02:32:28;47.28;32.78;66.68;;
67900;Laerm;54700;51.796;10.956;2023-06-14T02:34:55;56.38;32.97;72.10;;
67900;Laerm;54700;51.796;10.956;2023-06-14T02:37:22;52.76;32.24;68.10;;
67900;Laerm;54700;51.796;10.956;2023-06-14T02:39:49;44.35;32.52;55.05;;
67900;Laerm;54700;51.796;10.956;2023-06-14T02:42:16;44.02;32.73;55.42;;
67900;Laerm;54700;51.796;10.956;2023-06-14T02:44:44;56.28;33.67;70.69;;
67900;Laerm;54700;51.796;10.956;2023-06-14T02:47:16;41.84;34.23;55.19;;
67900;Laerm;54700;51.796;10.956;2023-06-14T02:49:43;56.73;34.81;69.98;;
67900;Laerm;54700;51.796;10.956;2023-06-14T02:52:12;54.91;32.76;72.04;;
67900;Laerm;54700;51.796;10.956;2023-06-14T02:54:38;40.07;32.79;55.19;;
67900;Laerm;54700;51.796;10.956;2023-06-14T02:57:05;52.00;33.61;68.77;;
67900;Laerm;54700;51.796;10.956;2023-06-14T02:59:33;51.19;33.00;67.48;;
67900;Laerm;54700;51.796;10.956;2023-06-14T03:02:02;57.82;32.68;69.97;;
67900;Laerm;54700;51.796;10.956;2023-06-14T03:04:29;56.34;32.27;69.72;;
67900;Laerm;54700;51.796;10.956;2023-06-14T03:07:02;62.52;33.57;74.58;;
67900;Laerm;54700;51.796;10.956;2023-06-14T03:09:35;57.28;33.52;68.36;;
67900;Laerm;54700;51.796;10.956;2023-06-14T03:12:02;50.84;32.43;66.40;;
67900;Laerm;54700;51.796;10.956;2023-06-14T03:14:36;61.11;32.75;76.08;;
67900;Laerm;54700;51.796;10.956;2023-06-14T03:17:11;61.32;32.41;78.47;;
67900;Laerm;54700;51.796;10.956;2023-06-14T03:19:46;49.50;32.14;72.46;;
67900;Laerm;54700;51.796;10.956;2023-06-14T03:22:14;56.15;32.06;71.48;;
67900;Laerm;54700;51.796;10.956;2023-06-14T03:24:43;58.33;34.43;72.01;;
67900;Laerm;54700;51.796;10.956;2023-06-14T03:27:10;60.05;36.96;71.72;;
67900;Laerm;54700;51.796;10.956;2023-06-14T03:29:38;58.02;32.80;77.37;;
67900;Laerm;54700;51.796;10.956;2023-06-14T03:32:07;59.41;34.68;78.06;;
67900;Laerm;54700;51.796;10.956;2023-06-14T03:34:35;58.20;34.60;69.85;;
67900;Laerm;54700;51.796;10.956;2023-06-14T03:37:04;59.60;34.86;70.98;;
67900;Laerm;54700;51.796;10.956;2023-06-14T03:39:31;58.93;34.07;74.16;;
67900;Laerm;54700;51.796;10.956;2023-06-14T03:41:58;57.58;33.95;69.90;;
67900;Laerm;54700;51.796;10.956;2023-06-14T03:44:26;59.69;35.28;69.99;;
67900;Laerm;54700;51.796;10.956;2023-06-14T03:46:56;59.65;35.27;70.46;;
67900;Laerm;54700;51.796;10.956;2023-06-14T03:49:25;60.32;35.94;73.45;;
67900;Laerm;54700;51.796;10.956;2023-06-14T03:51:53;60.79;38.12;71.38;;
67900;Laerm;54700;51.796;10.956;2023-06-14T03:54:21;60.96;37.57;71.93;;
67900;Laerm;54700;51.796;10.956;2023-06-14T03:56:51;61.03;36.02;70.63;;
67900;Laerm;54700;51.796;10.956;2023-06-14T03:59:19;61.69;34.97;72.72;;
67900;Laerm;54700;51.796;10.956;2023-06-14T04:01:47;56.92;37.42;68.44;;
67900;Laerm;54700;51.796;10.956;2023-06-14T04:04:17;62.23;37.44;83.01;;
67900;Laerm;54700;51.796;10.956;2023-06-14T04:06:59;58.73;35.35;72.08;;
67900;Laerm;54700;51.796;10.956;2023-06-14T04:09:29;57.83;37.69;69.70;;
67900;Laerm;54700;51.796;10.956;2023-06-14T04:11:56;60.33;38.19;71.23;;
67900;Laerm;54700;51.796;10.956;2023-06-14T04:14:23;60.78;37.77;71.56;;
67900;Laerm;54700;51.796;10.956;2023-06-14T04:16:50;62.02;35.72;74.45;;
67900;Laerm;54700;51.796;10.956;2023-06-14T04:19:16;62.26;36.30;76.17;;
67900;Laerm;54700;51.796;10.956;2023-06-14T04:21:43;61.28;38.61;73.68;;
67900;Laerm;54700;51.796;10.956;2023-06-14T04:24:14;61.64;38.20;72.52;;
67900;Laerm;54700;51.796;10.956;2023-06-14T04:26:41;62.86;42.88;71.51;;
67900;Laerm;54700;51.796;10.956;2023-06-14T04:29:10;61.83;36.81;72.25;;
67900;Laerm;54700;51.796;10.956;2023-06-14T04:31:39;59.49;36.70;71.59;;
67900;Laerm;54700;51.796;10.956;2023-06-14T04:34:06;61.96;37.92;74.08;;
67900;Laerm;54700;51.796;10.956;2023-06-14T04:36:33;63.77;37.98;76.85;;
67900;Laerm;54700;51.796;10.956;2023-06-14T04:41:44;62.30;39.83;72.58;;
67900;Laerm;54700;51.796;10.956;2023-06-14T04:44:12;62.44;33.82;77.00;;
67900;Laerm;54700;51.796;10.956;2023-06-14T04:46:39;64.22;37.16;76.13;;
67900;Laerm;54700;51.796;10.956;2023-06-14T04:49:11;64.78;37.07;79.21;;
67900;Laerm;54700;51.796;10.956;2023-06-14T04:51:58;62.83;43.62;79.11;;
67900;Laerm;54700;51.796;10.956;2023-06-14T04:54:29;63.21;40.42;76.13;;
67900;Laerm;54700;51.796;10.956;2023-06-14T04:57:08;63.23;43.96;72.30;;
67900;Laerm;54700;51.796;10.956;2023-06-14T04:59:55;63.06;45.00;73.20;;
67900;Laerm;54700;51.796;10.956;2023-06-14T05:02:24;64.52;44.47;78.56;;
67900;Laerm;54700;51.796;10.956;2023-06-14T05:04:57;64.48;45.15;77.65;;
67900;Laerm;54700;51.796;10.956;2023-06-14T05:07:30;61.36;43.36;70.57;;
67900;Laerm;54700;51.796;10.956;2023-06-14T05:09:57;64.41;44.71;77.75;;
67900;Laerm;54700;51.796;10.956;2023-06-14T05:12:26;61.75;37.51;72.31;;
67900;Laerm;54700;51.796;10.956;2023-06-14T05:14:55;62.35;39.95;74.26;;
67900;Laerm;54700;51.796;10.956;2023-06-14T05:17:25;61.29;35.26;72.73;;
67900;Laerm;54700;51.796;10.956;2023-06-14T05:19:56;63.09;38.65;75.74;;
67900;Laerm;54700;51.796;10.956;2023-06-14T05:22:28;64.12;39.96;78.74;;
67900;Laerm;54700;51.796;10.956;2023-06-14T05:25:05;62.62;36.51;72.44;;
67900;Laerm;54700;51.796;10.956;2023-06-14T05:27:34;61.86;39.73;71.71;;
67900;Laerm;54700;51.796;10.956;2023-06-14T05:30:11;63.51;43.28;74.02;;
67900;Laerm;54700;51.796;10.956;2023-06-14T05:32:52;64.45;36.80;78.24;;
67900;Laerm;54700;51.796;10.956;2023-06-14T05:35:21;65.81;35.89;84.33;;
67900;Laerm;54700;51.796;10.956;2023-06-14T05:37:52;63.82;41.29;75.11;;
67900;Laerm;54700;51.796;10.956;2023-06-14T05:40:30;62.69;37.47;75.31;;
67900;Laerm;54700;51.796;10.956;2023-06-14T05:43:01;64.28;45.77;73.96;;
67900;Laerm;54700;51.796;10.956;2023-06-14T05:45:34;63.12;46.11;75.99;;
67900;Laerm;54700;51.796;10.956;2023-06-14T05:48:01;62.95;42.89;70.47;;
67900;Laerm;54700;51.796;10.956;2023-06-14T05:50:29;61.89;39.95;71.98;;
67900;Laerm;54700;51.796;10.956;2023-06-14T05:53:11;63.22;42.87;72.71;;
67900;Laerm;54700;51.796;10.956;2023-06-14T05:56:04;63.89;42.05;71.80;;
67900;Laerm;54700;51.796;10.956;2023-06-14T05:59:20;63.14;50.07;77.78;;
67900;Laerm;54700;51.796;10.956;2023-06-14T06:01:53;64.82;42.79;78.01;;
67900;Laerm;54700;51.796;10.956;2023-06-14T06:04:32;62.06;35.10;77.28;;
67900;Laerm;54700;51.796;10.956;2023-06-14T06:07:24;62.04;38.65;73.49;;
67900;Laerm;54700;51.796;10.956;2023-06-14T06:09:58;61.47;37.53;71.90;;
67900;Laerm;54700;51.796;10.956;2023-06-14T06:12:26;60.88;35.24;69.49;;
67900;Laerm;54700;51.796;10.956;2023-06-14T06:15:10;61.54;41.05;73.44;;
67900;Laerm;54700;51.796;10.956;2023-06-14T06:18:03;62.40;37.71;75.57;;
67900;Laerm;54700;51.796;10.956;2023-06-14T06:20:35;61.70;37.49;74.99;;
67900;Laerm;54700;51.796;10.956;2023-06-14T06:23:08;62.57;43.07;73.68;;
67900;Laerm;54700;51.796;10.956;2023-06-14T06:25:56;60.40;35.18;71.75;;
67900;Laerm;54700;51.796;10.956;2023-06-14T06:28:27;60.69;35.01;70.74;;
67900;Laerm;54700;51.796;10.956;2023-06-14T06:31:08;63.07;35.21;81.62;;
67900;Laerm;54700;51.796;10.956;2023-06-14T06:33:53;62.98;36.13;74.21;;
67900;Laerm;54700;51.796;10.956;2023-06-14T06:36:38;62.34;35.55;75.92;;
67900;Laerm;54700;51.796;10.956;2023-06-14T06:39:31;61.26;34.29;71.39;;
67900;Laerm;54700;51.796;10.956;2023-06-14T06:41:59;62.16;37.18;70.42;;
67900;Laerm;54700;51.796;10.956;2023-06-14T06:44:51;61.24;37.12;72.57;;
67900;Laerm;54700;51.796;10.956;2023-06-14T06:47:20;59.67;33.43;74.37;;
67900;Laerm;54700;51.796;10.956;2023-06-14T06:49:47;62.84;45.31;70.54;;
67900;Laerm;54700;51.796;10.956;2023-06-14T06:52:15;62.03;36.61;71.23;;
67900;Laerm;54700;51.796;10.956;2023-06-14T06:54:45;63.12;41.33;73.76;;
67900;Laerm;54700;51.796;10.956;2023-06-14T06:57:12;61.49;39.33;73.46;;
67900;Laerm;54700;51.796;10.956;2023-06-14T06:59:39;64.15;41.07;76.11;;
67900;Laerm;54700;51.796;10.956;2023-06-14T07:02:07;63.44;42.45;74.55;;
67900;Laerm;54700;51.796;10.956;2023-06-14T07:04:36;60.79;36.93;71.40;;
67900;Laerm;54700;51.796;10.956;2023-06-14T07:07:03;61.24;44.05;68.84;;
67900;Laerm;54700;51.796;10.956;2023-06-14T07:09:33;62.37;38.03;72.67;;
67900;Laerm;54700;51.796;10.956;2023-06-14T07:12:14;62.16;41.85;70.22;;
67900;Laerm;54700;51.796;10.956;2023-06-14T07:14:42;61.54;38.00;71.51;;
67900;Laerm;54700;51.796;10.956;2023-06-14T07:17:09;62.23;48.50;71.98;;
67900;Laerm;54700;51.796;10.956;2023-06-14T07:19:39;63.62;47.26;73.87;;
67900;Laerm;54700;51.796;10.956;2023-06-14T07:22:11;64.85;46.18;82.04;;
67900;Laerm;54700;51.796;10.956;2023-06-14T07:24:39;64.28;47.85;73.23;;
67900;Laerm;54700;51.796;10.956;2023-06-14T07:27:10;61.12;44.33;69.70;;
67900;Laerm;54700;51.796;10.956;2023-06-14T07:29:38;65.29;47.64;78.60;;
67900;Laerm;54700;51.796;10.956;2023-06-14T07:32:09;63.75;42.20;71.49;;
67900;Laerm;54700;51.796;10.956;2023-06-14T07:34:41;63.53;38.93;76.21;;
67900;Laerm;54700;51.796;10.956;2023-06-14T07:37:19;63.03;39.41;73.93;;
67900;Laerm;54700;51.796;10.956;2023-06-14T07:40:03;63.95;48.26;75.59;;
67900;Laerm;54700;51.796;10.956;2023-06-14T07:42:34;60.13;38.88;75.80;;
67900;Laerm;54700;51.796;10.956;2023-06-14T07:45:11;61.62;40.56;69.30;;
67900;Laerm;54700;51.796;10.956;2023-06-14T07:47:39;63.34;44.96;74.12;;
67900;Laerm;54700;51.796;10.956;2023-06-14T07:50:21;63.05;42.76;76.81;;
67900;Laerm;54700;51.796;10.956;2023-06-14T07:52:50;62.79;43.25;71.59;;
67900;Laerm;54700;51.796;10.956;2023-06-14T07:55:22;61.56;40.80;72.61;;
67900;Laerm;54700;51.796;10.956;2023-06-14T07:57:51;64.27;47.94;74.59;;
67900;Laerm;54700;51.796;10.956;2023-06-14T08:00:34;62.57;46.20;71.99;;
67900;Laerm;54700;51.796;10.956;2023-06-14T08:03:16;61.39;41.89;71.26;;
67900;Laerm;54700;51.796;10.956;2023-06-14T08:05:46;62.41;42.04;71.44;;
67900;Laerm;54700;51.796;10.956;2023-06-14T08:08:23;62.08;43.77;72.00;;
67900;Laerm;54700;51.796;10.956;2023-06-14T08:10:51;61.27;41.26;71.88;;
67900;Laerm;54700;51.796;10.956;2023-06-14T08:13:28;63.40;42.12;75.04;;
67900;Laerm;54700;51.796;10.956;2023-06-14T08:15:58;63.10;42.39;73.89;;
67900;Laerm;54700;51.796;10.956;2023-06-14T08:18:27;61.86;41.77;71.90;;
67900;Laerm;54700;51.796;10.956;2023-06-14T08:20:57;62.27;42.00;71.84;;
67900;Laerm;54700;51.796;10.956;2023-06-14T08:23:28;63.29;41.34;74.92;;
67900;Laerm;54700;51.796;10.956;2023-06-14T08:25:55;65.31;44.02;79.48;;
67900;Laerm;54700;51.796;10.956;2023-06-14T08:28:24;63.70;41.16;72.95;;
67900;Laerm;54700;51.796;10.956;2023-06-14T08:30:51;62.01;40.04;74.01;;
67900;Laerm;54700;51.796;10.956;2023-06-14T08:33:18;61.53;39.13;70.55;;
67900;Laerm;54700;51.796;10.956;2023-06-14T08:35:48;62.00;44.08;81.88;;
67900;Laerm;54700;51.796;10.956;2023-06-14T08:38:32;62.79;40.76;72.70;;
67900;Laerm;54700;51.796;10.956;2023-06-14T08:41:01;62.09;44.14;72.98;;
67900;Laerm;54700;51.796;10.956;2023-06-14T08:43:32;62.51;40.04;75.61;;
67900;Laerm;54700;51.796;10.956;2023-06-14T08:46:03;62.73;38.73;73.29;;
67900;Laerm;54700;51.796;10.956;2023-06-14T08:48:33;62.38;44.19;73.19;;
67900;Laerm;54700;51.796;10.956;2023-06-14T08:51:03;63.37;42.74;76.09;;
67900;Laerm;54700;51.796;10.956;2023-06-14T08:53:45;61.32;42.53;69.72;;
67900;Laerm;54700;51.796;10.956;2023-06-14T08:56:17;63.45;41.99;74.87;;
67900;Laerm;54700;51.796;10.956;2023-06-14T08:58:53;64.05;39.09;75.85;;
67900;Laerm;54700;51.796;10.956;2023-06-14T09:01:25;59.67;42.12;71.62;;
67900;Laerm;54700;51.796;10.956;2023-06-14T09:04:10;60.73;38.73;70.72;;
67900;Laerm;54700;51.796;10.956;2023-06-14T09:06:43;62.55;48.80;70.79;;
67900;Laerm;54700;51.796;10.956;2023-06-14T09:09:22;65.29;44.12;80.54;;
67900;Laerm;54700;51.796;10.956;2023-06-14T09:11:50;60.60;42.04;70.75;;
67900;Laerm;54700;51.796;10.956;2023-06-14T09:14:30;61.32;46.71;70.88;;
67900;Laerm;54700;51.796;10.956;2023-06-14T09:17:03;61.61;41.02;69.95;;
67900;Laerm;54700;51.796;10.956;2023-06-14T09:19:36;62.32;37.26;73.06;;
67900;Laerm;54700;51.796;10.956;2023-06-14T09:22:04;60.76;41.49;73.59;;
67900;Laerm;54700;51.796;10.956;2023-06-14T09:24:39;63.18;45.84;73.35;;
67900;Laerm;54700;51.796;10.956;2023-06-14T09:27:15;60.92;40.32;71.91;;
67900;Laerm;54700;51.796;10.956;2023-06-14T09:29:48;62.86;39.61;74.57;;
67900;Laerm;54700;51.796;10.956;2023-06-14T09:32:35;63.01;43.02;72.64;;
67900;Laerm;54700;51.796;10.956;2023-06-14T09:35:12;60.93;40.93;74.61;;
67900;Laerm;54700;51.796;10.956;2023-06-14T09:43:44;62.96;36.70;76.07;;
67900;Laerm;54700;51.796;10.956;2023-06-14T09:45:00;63.02;38.14;73.14;;
67900;Laerm;54700;51.796;10.956;2023-06-14T09:48:45;61.52;41.45;72.37;;
67900;Laerm;54700;51.796;10.956;2023-06-14T09:50:55;64.90;44.00;80.45;;
67900;Laerm;54700;51.796;10.956;2023-06-14T09:53:37;64.05;39.33;78.49;;
67900;Laerm;54700;51.796;10.956;2023-06-14T10:02:37;63.49;40.46;75.74;;
67900;Laerm;54700;51.796;10.956;2023-06-14T10:05:09;62.34;39.85;74.61;;
67900;Laerm;54700;51.796;10.956;2023-06-14T10:07:53;61.28;44.37;73.00;;
67900;Laerm;54700;51.796;10.956;2023-06-14T10:10:32;62.23;40.33;76.90;;
67900;Laerm;54700;51.796;10.956;2023-06-14T10:13:07;61.39;39.30;73.33;;
67900;Laerm;54700;51.796;10.956;2023-06-14T10:15:50;60.65;39.07;71.63;;
67900;Laerm;54700;51.796;10.956;2023-06-14T10:18:26;62.09;43.84;73.62;;
67900;Laerm;54700;51.796;10.956;2023-06-14T10:21:08;62.71;40.37;75.42;;
67900;Laerm;54700;51.796;10.956;2023-06-14T10:23:48;63.00;40.62;76.55;;
67900;Laerm;54700;51.796;10.956;2023-06-14T10:26:20;63.80;42.24;76.80;;
67900;Laerm;54700;51.796;10.956;2023-06-14T10:29:01;63.45;36.45;73.20;;
67900;Laerm;54700;51.796;10.956;2023-06-14T10:31:43;60.85;43.02;69.55;;
67900;Laerm;54700;51.796;10.956;2023-06-14T10:34:12;64.46;43.43;77.54;;
67900;Laerm;54700;51.796;10.956;2023-06-14T10:37:00;60.26;38.47;69.09;;
67900;Laerm;54700;51.796;10.956;2023-06-14T10:39:28;62.10;45.34;69.88;;
67900;Laerm;54700;51.796;10.956;2023-06-14T10:41:57;59.34;40.45;71.96;;
67900;Laerm;54700;51.796;10.956;2023-06-14T10:44:46;61.64;41.62;75.86;;
67900;Laerm;54700;51.796;10.956;2023-06-14T10:47:24;61.15;38.96;74.26;;
67900;Laerm;54700;51.796;10.956;2023-06-14T10:50:16;61.49;40.64;72.65;;
67900;Laerm;54700;51.796;10.956;2023-06-14T10:52:45;62.26;42.45;70.10;;
67900;Laerm;54700;51.796;10.956;2023-06-14T10:55:13;63.77;44.97;77.73;;
67900;Laerm;54700;51.796;10.956;2023-06-14T10:57:44;63.40;46.66;75.78;;
67900;Laerm;54700;51.796;10.956;2023-06-14T11:00:18;61.93;43.75;73.83;;
67900;Laerm;54700;51.796;10.956;2023-06-14T11:06:12;62.21;42.16;76.58;;
67900;Laerm;54700;51.796;10.956;2023-06-14T11:09:02;62.35;42.54;74.35;;
67900;Laerm;54700;51.796;10.956;2023-06-14T11:11:37;61.40;42.85;70.49;;
67900;Laerm;54700;51.796;10.956;2023-06-14T11:14:06;62.13;42.66;69.00;;
67900;Laerm;54700;51.796;10.956;2023-06-14T11:16:34;62.48;43.81;72.53;;
67900;Laerm;54700;51.796;10.956;2023-06-14T11:19:03;61.95;40.97;72.62;;
67900;Laerm;54700;51.796;10.956;2023-06-14T11:21:33;62.81;41.12;77.80;;
67900;Laerm;54700;51.796;10.956;2023-06-14T11:24:02;62.13;41.15;71.14;;
67900;Laerm;54700;51.796;10.956;2023-06-14T11:26:31;61.16;45.22;71.35;;
67900;Laerm;54700;51.796;10.956;2023-06-14T11:29:00;60.66;41.77;75.20;;
67900;Laerm;54700;51.796;10.956;2023-06-14T11:31:28;59.72;40.60;70.05;;
67900;Laerm;54700;51.796;10.956;2023-06-14T11:33:57;61.62;41.46;73.55;;
67900;Laerm;54700;51.796;10.956;2023-06-14T11:36:33;63.09;46.72;76.23;;
67900;Laerm;54700;51.796;10.956;2023-06-14T11:39:03;60.91;43.14;71.11;;
67900;Laerm;54700;51.796;10.956;2023-06-14T11:41:37;63.28;38.41;76.12;;
67900;Laerm;54700;51.796;10.956;2023-06-14T11:44:17;62.69;48.25;73.40;;
67900;Laerm;54700;51.796;10.956;2023-06-14T11:46:52;61.93;40.59;72.77;;
67900;Laerm;54700;51.796;10.956;2023-06-14T11:49:21;61.01;43.62;75.92;;
67900;Laerm;54700;51.796;10.956;2023-06-14T11:51:53;63.48;45.77;77.77;;
67900;Laerm;54700;51.796;10.956;2023-06-14T11:54:22;63.36;44.54;71.23;;
67900;Laerm;54700;51.796;10.956;2023-06-14T11:57:04;60.79;39.66;71.40;;
67900;Laerm;54700;51.796;10.956;2023-06-14T11:59:41;60.66;39.28;77.92;;
67900;Laerm;54700;51.796;10.956;2023-06-14T12:02:13;64.21;50.52;72.87;;
67900;Laerm;54700;51.796;10.956;2023-06-14T12:04:42;65.21;42.79;77.36;;
67900;Laerm;54700;51.796;10.956;2023-06-14T12:07:12;61.86;45.13;72.26;;
67900;Laerm;54700;51.796;10.956;2023-06-14T12:10:05;61.68;42.36;69.48;;
67900;Laerm;54700;51.796;10.956;2023-06-14T12:12:35;63.70;43.52;75.63;;
67900;Laerm;54700;51.796;10.956;2023-06-14T12:15:03;61.95;40.34;74.83;;
67900;Laerm;54700;51.796;10.956;2023-06-14T12:17:32;63.24;43.13;73.83;;
67900;Laerm;54700;51.796;10.956;2023-06-14T12:20:04;64.65;45.73;77.69;;
67900;Laerm;54700;51.796;10.956;2023-06-14T12:22:36;60.24;37.78;71.53;;
67900;Laerm;54700;51.796;10.956;2023-06-14T12:25:05;63.14;45.83;73.68;;
67900;Laerm;54700;51.796;10.956;2023-06-14T12:27:35;63.45;44.54;71.42;;
67900;Laerm;54700;51.796;10.956;2023-06-14T12:30:03;60.93;38.11;71.14;;
67900;Laerm;54700;51.796;10.956;2023-06-14T12:32:33;62.75;44.14;73.85;;
67900;Laerm;54700;51.796;10.956;2023-06-14T12:35:00;64.74;49.87;77.86;;
67900;Laerm;54700;51.796;10.956;2023-06-14T12:37:28;60.83;39.47;68.34;;
67900;Laerm;54700;51.796;10.956;2023-06-14T12:39:55;63.46;51.17;71.99;;
67900;Laerm;54700;51.796;10.956;2023-06-14T12:42:24;62.73;48.33;71.59;;
67900;Laerm;54700;51.796;10.956;2023-06-14T12:44:56;62.39;45.83;69.46;;
67900;Laerm;54700;51.796;10.956;2023-06-14T12:47:23;62.30;39.91;71.37;;
67900;Laerm;54700;51.796;10.956;2023-06-14T12:49:50;62.68;42.91;71.62;;
67900;Laerm;54700;51.796;10.956;2023-06-14T12:52:17;63.76;46.73;76.28;;
67900;Laerm;54700;51.796;10.956;2023-06-14T12:54:44;64.04;40.66;78.89;;
67900;Laerm;54700;51.796;10.956;2023-06-14T12:57:11;62.01;46.54;68.66;;
67900;Laerm;54700;51.796;10.956;2023-06-14T12:59:45;63.06;44.61;77.77;;
67900;Laerm;54700;51.796;10.956;2023-06-14T13:02:15;66.01;49.67;77.78;;
67900;Laerm;54700;51.796;10.956;2023-06-14T13:04:42;61.68;43.54;71.98;;
67900;Laerm;54700;51.796;10.956;2023-06-14T13:07:09;63.54;44.64;72.88;;
67900;Laerm;54700;51.796;10.956;2023-06-14T13:09:37;63.80;41.49;71.31;;
67900;Laerm;54700;51.796;10.956;2023-06-14T13:12:07;62.92;39.71;74.57;;
67900;Laerm;54700;51.796;10.956;2023-06-14T13:14:34;62.59;43.89;72.86;;
67900;Laerm;54700;51.796;10.956;2023-06-14T13:17:03;64.72;42.01;76.51;;
67900;Laerm;54700;51.796;10.956;2023-06-14T13:19:30;62.89;45.12;79.40;;
67900;Laerm;54700;51.796;10.956;2023-06-14T13:21:57;63.42;48.19;70.89;;
67900;Laerm;54700;51.796;10.956;2023-06-14T13:24:23;63.55;43.79;72.72;;
67900;Laerm;54700;51.796;10.956;2023-06-14T13:26:50;64.04;49.04;76.41;;
67900;Laerm;54700;51.796;10.956;2023-06-14T13:29:17;65.40;40.02;80.52;;
67900;Laerm;54700;51.796;10.956;2023-06-14T13:31:44;63.82;40.84;72.65;;
67900;Laerm;54700;51.796;10.956;2023-06-14T13:34:13;63.84;45.30;74.24;;
67900;Laerm;54700;51.796;10.956;2023-06-14T13:36:40;63.14;47.47;70.68;;
67900;Laerm;54700;51.796;10.956;2023-06-14T13:39:07;65.01;44.26;72.87;;
67900;Laerm;54700;51.796;10.956;2023-06-14T13:41:34;62.60;43.51;71.70;;
67900;Laerm;54700;51.796;10.956;2023-06-14T13:44:01;64.40;47.33;74.57;;
67900;Laerm;54700;51.796;10.956;2023-06-14T13:46:32;63.24;42.28;72.62;;
67900;Laerm;54700;51.796;10.956;2023-06-14T13:49:02;63.81;47.20;77.32;;
67900;Laerm;54700;51.796;10.956;2023-06-14T13:51:33;62.14;40.81;69.81;;
67900;Laerm;54700;51.796;10.956;2023-06-14T13:54:00;62.93;44.69;70.45;;
67900;Laerm;54700;51.796;10.956;2023-06-14T13:56:27;62.74;40.75;70.76;;
67900;Laerm;54700;51.796;10.956;2023-06-14T13:58:55;62.70;39.39;74.66;;
67900;Laerm;54700;51.796;10.956;2023-06-14T14:01:33;63.54;39.58;71.91;;
67900;Laerm;54700;51.796;10.956;2023-06-14T14:04:00;63.81;43.27;72.43;;
67900;Laerm;54700;51.796;10.956;2023-06-14T14:06:28;61.93;39.49;73.07;;
67900;Laerm;54700;51.796;10.956;2023-06-14T14:08:56;62.48;38.33;72.68;;
67900;Laerm;54700;51.796;10.956;2023-06-14T14:11:23;61.86;47.02;69.47;;
67900;Laerm;54700;51.796;10.956;2023-06-14T14:13:50;63.37;45.27;70.08;;
67900;Laerm;54700;51.796;10.956;2023-06-14T14:16:20;63.49;45.32;71.14;;